Time;durP1;ratioP1;P1;durP2;ratioP2;P2;SDS_P1;SDS_P2;PMS_P1;PMS_P2;Temp;Humidity;BMP_temperature;BMP_pressure;BME280_temperature;BME280_humidity;BME280_pressure;Samples;Min_cycle;Max_cycle;Signal;HPM_P1;HPM_P2
2022/06/12 00:00:28;;;;;;;5.25;1.77;;;;;;;;;;6115677;23;20027;-81
2022/06/12 00:02:56;;;;;;;7.55;2.03;;;;;;;;;;6085468;23;20027;-80
2022/06/12 00:05:24;;;;;;;6.72;1.60;;;;;;;;;;6108090;23;20071;-80
2022/06/12 00:07:51;;;;;;;12.68;2.13;;;;;;;;;;6104785;23;20054;-80
2022/06/12 00:10:19;;;;;;;6.00;1.90;;;;;;;;;;6081507;23;20018;-81
2022/06/12 00:12:47;;;;;;;6.45;2.17;;;;;;;;;;6081354;23;20017;-80
2022/06/12 00:15:16;;;;;;;5.68;1.63;;;;;;;;;;6106469;23;20074;-81
2022/06/12 00:17:44;;;;;;;8.25;1.90;;;;;;;;;;6108157;23;20011;-80
2022/06/12 00:20:12;;;;;;;7.43;1.80;;;;;;;;;;6082210;23;20034;-81
2022/06/12 00:22:39;;;;;;;4.85;1.55;;;;;;;;;;6108912;23;20031;-80
2022/06/12 00:25:09;;;;;;;11.48;1.67;;;;;;;;;;6082869;23;20014;-80
2022/06/12 00:27:37;;;;;;;4.90;1.50;;;;;;;;;;6083313;23;20027;-81
2022/06/12 00:30:06;;;;;;;7.13;1.60;;;;;;;;;;6107885;23;20022;-81
2022/06/12 00:32:33;;;;;;;3.97;1.65;;;;;;;;;;6108607;23;20038;-80
2022/06/12 00:35:00;;;;;;;6.13;1.58;;;;;;;;;;6109950;23;20880;-81
2022/06/12 00:37:28;;;;;;;7.70;1.70;;;;;;;;;;6110731;23;20063;-81
2022/06/12 00:39:56;;;;;;;3.45;1.35;;;;;;;;;;6109027;23;20026;-82
2022/06/12 00:42:35;;;;;;;6.95;1.75;;;;;;;;;;6109210;23;20054;-80
2022/06/12 00:45:22;;;;;;;11.68;2.03;;;;;;;;;;6109275;23;20901;-82
2022/06/12 00:47:49;;;;;;;4.97;1.52;;;;;;;;;;6107790;23;20015;-81
2022/06/12 00:50:16;;;;;;;8.13;1.52;;;;;;;;;;6082313;23;20846;-81
2022/06/12 00:52:46;;;;;;;8.52;1.58;;;;;;;;;;6083677;23;20106;-80
2022/06/12 00:55:18;;;;;;;8.05;1.63;;;;;;;;;;6082026;23;20118;-80
2022/06/12 00:57:47;;;;;;;9.45;1.65;;;;;;;;;;6107945;23;20017;-80
2022/06/12 01:00:15;;;;;;;11.73;2.10;;;;;;;;;;6107107;23;20037;-81
2022/06/12 01:02:43;;;;;;;12.43;2.35;;;;;;;;;;6081758;23;20022;-81
2022/06/12 01:08:00;;;;;;;13.18;1.77;;;;;;;;;;6108558;23;20098;-81
2022/06/12 01:10:28;;;;;;;12.52;2.22;;;;;;;;;;6108823;23;20094;-80
2022/06/12 01:12:58;;;;;;;11.10;1.80;;;;;;;;;;6108547;23;20015;-81
2022/06/12 01:15:41;;;;;;;15.20;2.20;;;;;;;;;;6082979;23;20844;-80
2022/06/12 01:18:10;;;;;;;9.45;2.08;;;;;;;;;;6108731;23;20042;-81
2022/06/12 01:20:50;;;;;;;12.13;2.25;;;;;;;;;;6108941;23;20052;-81
2022/06/12 01:23:23;;;;;;;8.98;2.08;;;;;;;;;;6108066;23;20053;-81
2022/06/12 01:26:05;;;;;;;12.00;2.00;;;;;;;;;;6107543;23;20026;-80
2022/06/12 01:28:40;;;;;;;16.30;2.25;;;;;;;;;;6108132;23;20018;-80
2022/06/12 01:31:17;;;;;;;10.52;1.90;;;;;;;;;;6109542;23;20114;-80
2022/06/12 01:34:04;;;;;;;10.63;1.80;;;;;;;;;;6108085;23;20485;-80
2022/06/12 01:36:34;;;;;;;13.75;2.45;;;;;;;;;;6069757;23;20023;-80
2022/06/12 01:39:12;;;;;;;12.52;2.53;;;;;;;;;;6083102;23;20082;-80
2022/06/12 01:41:52;;;;;;;17.63;2.40;;;;;;;;;;6110364;23;20107;-81
2022/06/12 01:44:23;;;;;;;9.25;2.40;;;;;;;;;;6082247;23;20029;-81
2022/06/12 01:46:55;;;;;;;11.27;2.50;;;;;;;;;;6110406;23;20079;-81
2022/06/12 01:49:36;;;;;;;11.32;2.40;;;;;;;;;;6085549;23;20078;-80
2022/06/12 01:52:15;;;;;;;12.18;2.30;;;;;;;;;;6112331;23;21316;-80
2022/06/12 01:54:52;;;;;;;14.60;2.42;;;;;;;;;;6087472;23;20023;-81
2022/06/12 01:57:29;;;;;;;11.85;2.60;;;;;;;;;;6111348;23;20023;-81
2022/06/12 01:59:58;;;;;;;11.68;2.40;;;;;;;;;;6086476;23;20030;-80
2022/06/12 02:02:29;;;;;;;13.18;2.42;;;;;;;;;;6086903;23;20078;-80
2022/06/12 02:05:01;;;;;;;11.80;2.30;;;;;;;;;;6086272;23;20035;-80
2022/06/12 02:07:30;;;;;;;11.65;2.20;;;;;;;;;;6112628;23;20033;-81
2022/06/12 02:10:05;;;;;;;16.10;2.42;;;;;;;;;;6112799;23;20050;-81
2022/06/12 02:15:25;;;;;;;9.75;2.35;;;;;;;;;;6116520;23;20019;-81
2022/06/12 02:17:55;;;;;;;12.88;2.70;;;;;;;;;;6090864;23;20025;-80
2022/06/12 02:20:24;;;;;;;15.63;3.28;;;;;;;;;;6116628;23;20169;-81
2022/06/12 02:22:51;;;;;;;12.93;2.47;;;;;;;;;;6116419;23;20154;-82
2022/06/12 02:25:21;;;;;;;16.73;2.53;;;;;;;;;;6088418;23;20042;-81
2022/06/12 02:27:54;;;;;;;15.85;2.63;;;;;;;;;;6088902;23;20023;-80
2022/06/12 02:30:26;;;;;;;16.38;3.40;;;;;;;;;;6090001;23;20038;-81
2022/06/12 02:33:05;;;;;;;17.67;2.90;;;;;;;;;;6115008;23;20098;-81
2022/06/12 02:35:42;;;;;;;12.82;2.40;;;;;;;;;;6090789;23;20610;-81
2022/06/12 02:38:35;;;;;;;15.75;2.88;;;;;;;;;;6090024;23;20054;-81
2022/06/12 02:41:14;;;;;;;15.07;2.85;;;;;;;;;;6112686;23;20022;-81
2022/06/12 02:43:44;;;;;;;14.02;2.97;;;;;;;;;;6093071;23;20114;-80
2022/06/12 02:46:19;;;;;;;15.75;3.28;;;;;;;;;;6091760;23;20027;-81
2022/06/12 02:48:46;;;;;;;19.80;3.85;;;;;;;;;;6117848;23;20095;-81
2022/06/12 02:51:16;;;;;;;22.70;3.33;;;;;;;;;;6092277;23;20075;-80
2022/06/12 02:53:47;;;;;;;11.98;3.10;;;;;;;;;;6093103;23;20046;-81
2022/06/12 02:56:31;;;;;;;22.35;3.70;;;;;;;;;;6115321;23;20015;-81
2022/06/12 02:59:17;;;;;;;16.77;3.38;;;;;;;;;;6087156;23;20079;-81
2022/06/12 03:01:49;;;;;;;14.05;3.97;;;;;;;;;;6087083;23;20027;-80
2022/06/12 03:04:30;;;;;;;15.23;3.63;;;;;;;;;;6112003;23;20019;-81
2022/06/12 03:06:57;;;;;;;17.50;3.50;;;;;;;;;;6086159;23;20034;-82
2022/06/12 03:09:24;;;;;;;13.32;3.10;;;;;;;;;;6084834;23;20122;-81
2022/06/12 03:11:54;;;;;;;15.52;3.28;;;;;;;;;;6083698;23;20027;-81
2022/06/12 03:14:23;;;;;;;21.77;4.15;;;;;;;;;;6109398;23;20097;-81
2022/06/12 03:16:50;;;;;;;20.20;3.75;;;;;;;;;;6087115;23;20128;-81
2022/06/12 03:19:20;;;;;;;14.95;3.00;;;;;;;;;;6112013;23;20019;-81
2022/06/12 03:21:59;;;;;;;18.80;3.63;;;;;;;;;;6111320;23;20017;-81
2022/06/12 03:24:41;;;;;;;15.02;3.63;;;;;;;;;;6110636;23;20074;-81
2022/06/12 03:27:13;;;;;;;17.70;4.07;;;;;;;;;;6109204;23;20087;-83
2022/06/12 03:29:40;;;;;;;11.75;3.20;;;;;;;;;;6085158;23;20042;-82
2022/06/12 03:32:10;;;;;;;18.30;3.50;;;;;;;;;;6085335;23;20546;-81
2022/06/12 03:34:48;;;;;;;11.93;3.55;;;;;;;;;;6109358;23;20023;-81
2022/06/12 03:37:28;;;;;;;18.92;4.20;;;;;;;;;;6084912;23;20812;-81
2022/06/12 03:40:03;;;;;;;20.55;4.07;;;;;;;;;;6084212;23;20907;-80
2022/06/12 03:42:34;;;;;;;22.63;3.80;;;;;;;;;;6111125;23;20071;-82
2022/06/12 03:45:18;;;;;;;17.63;3.85;;;;;;;;;;6085066;23;20029;-80
2022/06/12 03:47:52;;;;;;;12.25;3.03;;;;;;;;;;6084579;23;20023;-81
2022/06/12 03:50:22;;;;;;;31.23;4.65;;;;;;;;;;6110088;23;20090;-81
2022/06/12 03:52:54;;;;;;;23.80;4.43;;;;;;;;;;6084861;23;20051;-81
2022/06/12 03:57:50;;;;;;;17.13;3.45;;;;;;;;;;6111196;23;20019;-80
2022/06/12 03:58:17;;;;;;;14.75;3.38;;;;;;;;;;6110970;23;20034;-81
2022/06/12 04:00:46;;;;;;;15.38;3.60;;;;;;;;;;6110386;23;20054;-80
2022/06/12 04:03:25;;;;;;;14.77;3.20;;;;;;;;;;6084269;23;20031;-81
2022/06/12 04:06:13;;;;;;;16.60;3.58;;;;;;;;;;6085247;23;20039;-81
2022/06/12 04:08:51;;;;;;;16.85;3.30;;;;;;;;;;6104149;23;20059;-82
2022/06/12 04:11:20;;;;;;;13.00;3.60;;;;;;;;;;6111746;23;20891;-80
2022/06/12 04:13:49;;;;;;;17.15;3.70;;;;;;;;;;6111095;23;20015;-81
2022/06/12 04:16:22;;;;;;;14.60;3.00;;;;;;;;;;6111002;23;20027;-81
2022/06/12 04:18:50;;;;;;;13.05;3.30;;;;;;;;;;6085609;23;20047;-81
2022/06/12 04:21:23;;;;;;;19.05;3.65;;;;;;;;;;6085485;23;20023;-82
2022/06/12 04:23:57;;;;;;;18.88;3.60;;;;;;;;;;6110016;23;21129;-81
2022/06/12 04:26:43;;;;;;;14.10;3.35;;;;;;;;;;6109473;23;20106;-81
2022/06/12 04:29:13;;;;;;;21.45;3.88;;;;;;;;;;6084305;23;20054;-81
2022/06/12 04:31:45;;;;;;;19.33;3.75;;;;;;;;;;6085062;23;20022;-81
2022/06/12 04:34:12;;;;;;;16.63;3.85;;;;;;;;;;6110406;23;20011;-80
2022/06/12 04:36:40;;;;;;;21.25;4.15;;;;;;;;;;6085051;23;20871;-81
2022/06/12 04:39:07;;;;;;;18.33;4.10;;;;;;;;;;6110821;23;20070;-80
2022/06/12 04:41:37;;;;;;;15.07;3.83;;;;;;;;;;6088755;23;20022;-80
2022/06/12 04:44:04;;;;;;;15.60;3.88;;;;;;;;;;6089861;23;20860;-81
2022/06/12 04:46:35;;;;;;;22.05;4.28;;;;;;;;;;6111276;23;20023;-80
2022/06/12 04:49:03;;;;;;;16.92;3.85;;;;;;;;;;6111479;23;20899;-82
2022/06/12 04:51:30;;;;;;;26.02;4.15;;;;;;;;;;6110702;23;20177;-80
2022/06/12 04:53:57;;;;;;;17.80;4.07;;;;;;;;;;6109993;23;20027;-81
2022/06/12 04:56:26;;;;;;;13.98;3.60;;;;;;;;;;6110165;23;20102;-81
2022/06/12 04:58:53;;;;;;;20.67;3.95;;;;;;;;;;6109459;23;20018;-81
2022/06/12 05:01:21;;;;;;;13.10;3.45;;;;;;;;;;6085137;23;20022;-81
2022/06/12 05:03:56;;;;;;;18.45;3.90;;;;;;;;;;6109873;23;20125;-81
2022/06/12 05:06:23;;;;;;;19.00;3.80;;;;;;;;;;6085509;23;20041;-81
2022/06/12 05:08:50;;;;;;;14.77;3.95;;;;;;;;;;6110745;23;20042;-81
2022/06/12 05:11:18;;;;;;;15.60;3.63;;;;;;;;;;6085319;23;20035;-81
2022/06/12 05:13:45;;;;;;;19.73;3.90;;;;;;;;;;6085380;23;20066;-81
2022/06/12 05:16:28;;;;;;;16.67;3.70;;;;;;;;;;6110350;23;20042;-80
2022/06/12 05:18:55;;;;;;;14.27;3.70;;;;;;;;;;6085918;23;20031;-81
2022/06/12 05:21:24;;;;;;;18.60;4.53;;;;;;;;;;6085082;23;20094;-80
2022/06/12 05:23:51;;;;;;;18.98;3.55;;;;;;;;;;6109411;23;20797;-81
2022/06/12 05:26:19;;;;;;;21.15;3.60;;;;;;;;;;6083626;23;20027;-80
2022/06/12 05:28:46;;;;;;;16.92;3.67;;;;;;;;;;6110428;23;20023;-82
2022/06/12 05:31:17;;;;;;;16.08;3.42;;;;;;;;;;6084891;23;20779;-81
2022/06/12 05:33:46;;;;;;;16.63;3.42;;;;;;;;;;6084360;23;20777;-82
2022/06/12 05:36:20;;;;;;;23.63;3.80;;;;;;;;;;6086469;23;20027;-81
2022/06/12 05:38:47;;;;;;;20.88;4.53;;;;;;;;;;6084609;23;20098;-80
2022/06/12 05:41:14;;;;;;;17.27;3.45;;;;;;;;;;6084019;23;20019;-81
2022/06/12 05:43:42;;;;;;;15.88;3.50;;;;;;;;;;6084824;23;20104;-81
2022/06/12 05:46:10;;;;;;;20.13;4.38;;;;;;;;;;6084869;23;20029;-81
2022/06/12 05:48:40;;;;;;;16.55;3.42;;;;;;;;;;6084481;23;20026;-81
2022/06/12 05:51:08;;;;;;;24.02;3.97;;;;;;;;;;6084243;23;20034;-81
2022/06/12 05:53:36;;;;;;;13.95;3.58;;;;;;;;;;6083167;23;20015;-80
2022/06/12 05:56:08;;;;;;;25.65;3.97;;;;;;;;;;6108803;23;20145;-81
2022/06/12 05:58:36;;;;;;;15.32;4.30;;;;;;;;;;6084784;23;20023;-81
2022/06/12 06:01:05;;;;;;;17.05;3.65;;;;;;;;;;6084549;23;20071;-80
2022/06/12 06:03:33;;;;;;;19.58;4.10;;;;;;;;;;6109490;23;20033;-81
2022/06/12 06:06:00;;;;;;;24.05;4.13;;;;;;;;;;6083501;23;20106;-83
2022/06/12 06:08:28;;;;;;;21.42;4.10;;;;;;;;;;6084282;23;20050;-81
2022/06/12 06:10:55;;;;;;;18.90;3.45;;;;;;;;;;6111159;23;20022;-81
2022/06/12 06:13:22;;;;;;;17.90;3.88;;;;;;;;;;6086745;23;20570;-82
2022/06/12 06:15:50;;;;;;;21.23;3.97;;;;;;;;;;6085832;23;20011;-82
2022/06/12 06:18:19;;;;;;;20.85;4.03;;;;;;;;;;6109712;23;20015;-81
2022/06/12 06:20:47;;;;;;;18.52;3.83;;;;;;;;;;6110299;23;20110;-81
2022/06/12 06:23:14;;;;;;;16.33;3.45;;;;;;;;;;6108999;23;20109;-82
2022/06/12 06:25:44;;;;;;;20.35;4.10;;;;;;;;;;6109826;23;20355;-82
2022/06/12 06:28:12;;;;;;;20.30;3.92;;;;;;;;;;6085515;23;20721;-81
2022/06/12 06:30:41;;;;;;;21.50;4.38;;;;;;;;;;6085923;23;20059;-82
2022/06/12 06:33:09;;;;;;;16.98;3.70;;;;;;;;;;6110503;23;20101;-82
2022/06/12 06:35:37;;;;;;;12.60;3.40;;;;;;;;;;6085913;23;20011;-82
2022/06/12 06:38:05;;;;;;;20.33;3.83;;;;;;;;;;6084980;23;20115;-81
2022/06/12 06:40:33;;;;;;;23.80;4.57;;;;;;;;;;6110989;23;20807;-82
2022/06/12 06:43:05;;;;;;;15.98;3.65;;;;;;;;;;6084991;23;20031;-81
2022/06/12 06:48:18;;;;;;;22.58;4.28;;;;;;;;;;6109962;23;20765;-82
2022/06/12 06:50:45;;;;;;;15.85;3.55;;;;;;;;;;6084399;23;20054;-82
2022/06/12 06:53:13;;;;;;;16.98;3.72;;;;;;;;;;6086198;23;20019;-81
2022/06/12 06:55:41;;;;;;;14.45;3.67;;;;;;;;;;6085014;23;20019;-83
2022/06/12 06:58:10;;;;;;;16.98;3.10;;;;;;;;;;6085170;23;20040;-81
2022/06/12 07:00:41;;;;;;;13.07;3.00;;;;;;;;;;6111973;23;20055;-81
2022/06/12 07:03:09;;;;;;;23.30;4.20;;;;;;;;;;6087876;23;20107;-81
2022/06/12 07:05:36;;;;;;;13.57;3.17;;;;;;;;;;6087325;23;20029;-82
2022/06/12 07:08:06;;;;;;;18.05;3.25;;;;;;;;;;6088467;23;20111;-82
2022/06/12 07:10:36;;;;;;;16.02;3.72;;;;;;;;;;6090276;23;20860;-82
2022/06/12 07:13:03;;;;;;;13.63;3.25;;;;;;;;;;6090377;23;20021;-82
2022/06/12 07:15:31;;;;;;;15.63;3.15;;;;;;;;;;6114839;23;20082;-82
2022/06/12 07:17:59;;;;;;;14.68;3.28;;;;;;;;;;6082986;23;20027;-81
2022/06/12 07:20:30;;;;;;;18.83;3.38;;;;;;;;;;6082833;23;20821;-81
2022/06/12 07:22:58;;;;;;;14.63;3.40;;;;;;;;;;6083065;23;20094;-81
2022/06/12 07:25:25;;;;;;;19.00;3.42;;;;;;;;;;6084024;23;20023;-81
2022/06/12 07:27:52;;;;;;;15.35;3.50;;;;;;;;;;6109413;23;20033;-82
2022/06/12 07:30:26;;;;;;;18.00;2.75;;;;;;;;;;6085062;23;20019;-81
2022/06/12 07:32:53;;;;;;;14.85;3.15;;;;;;;;;;6085460;23;20074;-82
2022/06/12 07:35:21;;;;;;;11.23;2.78;;;;;;;;;;6086043;23;20026;-81
2022/06/12 07:37:49;;;;;;;17.10;3.75;;;;;;;;;;6083413;23;20034;-82
2022/06/12 07:40:18;;;;;;;12.77;2.72;;;;;;;;;;6084172;23;20910;-82
2022/06/12 07:42:46;;;;;;;14.20;3.45;;;;;;;;;;6084301;23;20011;-82
2022/06/12 07:45:13;;;;;;;11.98;3.15;;;;;;;;;;6109845;23;20043;-82
2022/06/12 07:47:40;;;;;;;12.38;2.92;;;;;;;;;;6086962;23;20019;-81
2022/06/12 07:50:08;;;;;;;15.65;3.55;;;;;;;;;;6087712;23;20074;-82
2022/06/12 07:52:37;;;;;;;16.63;3.45;;;;;;;;;;6085792;23;20030;-82
2022/06/12 07:55:09;;;;;;;18.13;3.97;;;;;;;;;;6087462;23;20023;-82
2022/06/12 07:57:37;;;;;;;11.27;3.05;;;;;;;;;;6088001;23;20047;-82
2022/06/12 08:00:04;;;;;;;13.73;3.47;;;;;;;;;;6088936;23;20039;-84
2022/06/12 08:02:32;;;;;;;14.48;3.83;;;;;;;;;;6088059;23;20106;-81
2022/06/12 08:05:02;;;;;;;13.73;3.05;;;;;;;;;;6086687;23;20026;-82
2022/06/12 08:07:30;;;;;;;15.20;3.28;;;;;;;;;;6087238;23;20054;-81
2022/06/12 08:09:59;;;;;;;14.63;3.00;;;;;;;;;;6088106;23;20027;-82
2022/06/12 08:12:26;;;;;;;16.30;3.50;;;;;;;;;;6087058;23;20030;-82
2022/06/12 08:14:54;;;;;;;16.38;3.70;;;;;;;;;;6086215;23;20019;-82
2022/06/12 08:17:21;;;;;;;18.92;3.65;;;;;;;;;;6087301;23;20752;-83
2022/06/12 08:22:37;;;;;;;13.85;3.28;;;;;;;;;;6112159;23;20122;-82
2022/06/12 08:25:04;;;;;;;13.98;3.47;;;;;;;;;;6111510;23;20014;-84
2022/06/12 08:27:32;;;;;;;16.88;3.78;;;;;;;;;;6087731;23;20023;-82
2022/06/12 08:30:00;;;;;;;15.80;3.38;;;;;;;;;;6085937;23;20019;-82
2022/06/12 08:32:27;;;;;;;15.88;4.05;;;;;;;;;;6087644;23;20042;-82
2022/06/12 08:34:56;;;;;;;11.90;3.08;;;;;;;;;;6086279;23;20019;-82
2022/06/12 08:37:25;;;;;;;14.40;3.22;;;;;;;;;;6087349;23;20026;-83
2022/06/12 08:39:53;;;;;;;12.43;3.10;;;;;;;;;;6086562;23;20018;-82
2022/06/12 08:42:25;;;;;;;13.70;2.95;;;;;;;;;;6088023;23;20813;-82
2022/06/12 08:44:54;;;;;;;12.32;2.67;;;;;;;;;;6085386;23;20015;-82
2022/06/12 08:47:27;;;;;;;11.85;3.00;;;;;;;;;;6086764;23;20824;-83
2022/06/12 08:50:10;;;;;;;13.27;3.67;;;;;;;;;;6086379;23;20014;-83
2022/06/12 08:53:16;;;;;;;15.57;3.42;;;;;;;;;;6087134;23;20011;-82
2022/06/12 08:55:43;;;;;;;10.35;2.88;;;;;;;;;;6054158;23;20083;-82
2022/06/12 08:58:20;;;;;;;10.32;2.65;;;;;;;;;;6054553;23;20019;-84
2022/06/12 09:00:47;;;;;;;13.55;3.00;;;;;;;;;;6055905;23;20065;-82
2022/06/12 09:03:17;;;;;;;12.98;3.05;;;;;;;;;;6081075;23;20031;-83
2022/06/12 09:05:58;;;;;;;13.50;3.08;;;;;;;;;;6056007;23;20023;-82
2022/06/12 09:08:33;;;;;;;9.02;2.40;;;;;;;;;;6056003;23;20035;-83
2022/06/12 09:11:18;;;;;;;10.38;2.72;;;;;;;;;;6056328;23;20015;-83
2022/06/12 09:13:51;;;;;;;8.93;2.50;;;;;;;;;;6057001;23;20027;-82
2022/06/12 09:16:39;;;;;;;12.85;2.60;;;;;;;;;;6057609;23;20370;-82
2022/06/12 09:19:13;;;;;;;8.13;2.40;;;;;;;;;;6081089;23;20678;-82
2022/06/12 09:21:58;;;;;;;9.70;1.95;;;;;;;;;;6056655;23;20192;-82
2022/06/12 09:24:34;;;;;;;6.90;2.30;;;;;;;;;;6057736;23;20012;-83
2022/06/12 09:27:03;;;;;;;9.45;2.58;;;;;;;;;;6078099;23;20061;-82
2022/06/12 09:29:51;;;;;;;12.93;2.55;;;;;;;;;;6087799;23;20018;-82
2022/06/12 09:32:24;;;;;;;12.38;3.10;;;;;;;;;;6090494;23;20029;-83
2022/06/12 09:35:05;;;;;;;11.17;3.07;;;;;;;;;;6094176;23;20021;-83
2022/06/12 09:40:48;;;;;;;7.60;2.30;;;;;;;;;;6121888;23;20069;-84
2022/06/12 09:43:15;;;;;;;9.18;2.10;;;;;;;;;;6097095;23;20023;-84
2022/06/12 09:45:45;;;;;;;10.68;2.80;;;;;;;;;;6119692;23;19999;-84
2022/06/12 09:48:22;;;;;;;9.38;2.28;;;;;;;;;;6119325;23;20015;-83
2022/06/12 09:51:11;;;;;;;12.88;2.60;;;;;;;;;;6118765;23;20047;-83
2022/06/12 09:53:49;;;;;;;10.05;2.45;;;;;;;;;;6095278;23;20022;-82
2022/06/12 09:56:20;;;;;;;10.63;2.67;;;;;;;;;;6094381;23;20015;-82
2022/06/12 09:58:51;;;;;;;11.23;2.50;;;;;;;;;;6096325;23;20047;-83
2022/06/12 10:01:31;;;;;;;10.68;2.60;;;;;;;;;;6096491;23;20019;-83
2022/06/12 10:04:22;;;;;;;8.40;2.22;;;;;;;;;;6096690;23;20019;-84
2022/06/12 10:06:58;;;;;;;14.15;2.90;;;;;;;;;;6090214;23;20035;-84
2022/06/12 10:09:36;;;;;;;9.18;2.20;;;;;;;;;;6096140;23;20019;-83
2022/06/12 10:12:14;;;;;;;8.88;2.58;;;;;;;;;;6096597;23;20023;-84
2022/06/12 10:14:43;;;;;;;12.20;2.50;;;;;;;;;;6096370;23;20045;-84
2022/06/12 10:17:16;;;;;;;12.55;2.45;;;;;;;;;;6093461;23;20030;-83
2022/06/12 10:19:50;;;;;;;8.98;2.30;;;;;;;;;;6095236;23;20015;-83
2022/06/12 10:22:28;;;;;;;11.85;2.13;;;;;;;;;;6094618;23;20011;-83
2022/06/12 10:24:58;;;;;;;11.70;2.47;;;;;;;;;;6095331;23;20063;-84
2022/06/12 10:27:26;;;;;;;7.88;2.40;;;;;;;;;;6096074;23;20026;-82
2022/06/12 10:30:00;;;;;;;10.57;2.22;;;;;;;;;;6098651;23;20031;-82
2022/06/12 10:32:31;;;;;;;10.90;2.33;;;;;;;;;;6123714;23;20030;-82
2022/06/12 10:35:15;;;;;;;11.13;2.30;;;;;;;;;;6092613;23;20053;-83
2022/06/12 10:37:43;;;;;;;11.77;2.50;;;;;;;;;;6087443;23;20086;-83
2022/06/12 10:40:21;;;;;;;8.85;2.15;;;;;;;;;;6090370;23;20011;-82
2022/06/12 10:42:55;;;;;;;8.38;2.53;;;;;;;;;;6087488;23;20326;-82
2022/06/12 10:45:27;;;;;;;8.27;2.50;;;;;;;;;;6088367;23;20018;-83
2022/06/12 10:47:56;;;;;;;10.50;2.53;;;;;;;;;;6088926;23;20755;-83
2022/06/12 10:50:31;;;;;;;8.27;2.40;;;;;;;;;;6089770;23;20015;-82
2022/06/12 10:53:11;;;;;;;8.68;2.33;;;;;;;;;;6087703;23;20011;-84
2022/06/12 10:55:52;;;;;;;10.68;2.45;;;;;;;;;;6088328;23;20852;-81
2022/06/12 10:58:30;;;;;;;14.07;2.45;;;;;;;;;;6089527;23;20023;-82
2022/06/12 11:01:03;;;;;;;10.55;2.72;;;;;;;;;;6091032;23;20023;-81
2022/06/12 11:03:40;;;;;;;10.48;2.25;;;;;;;;;;6086184;23;20137;-82
2022/06/12 11:06:16;;;;;;;8.43;2.28;;;;;;;;;;6089733;23;20023;-81
2022/06/12 11:09:13;;;;;;;9.10;2.00;;;;;;;;;;6092652;23;20043;-81
2022/06/12 11:12:02;;;;;;;9.18;2.55;;;;;;;;;;6088794;23;20019;-82
2022/06/12 11:15:01;;;;;;;13.80;2.60;;;;;;;;;;6101900;23;20067;-84
2022/06/12 11:17:37;;;;;;;7.30;2.25;;;;;;;;;;6099539;23;20030;-84
2022/06/12 11:20:19;;;;;;;6.95;2.38;;;;;;;;;;6099847;23;20013;-84
2022/06/12 11:22:49;;;;;;;8.25;2.15;;;;;;;;;;6099965;23;20018;-83
2022/06/12 11:25:23;;;;;;;8.88;2.42;;;;;;;;;;6098958;23;20014;-82
2022/06/12 11:28:22;;;;;;;9.02;2.08;;;;;;;;;;6099853;23;20018;-83
2022/06/12 11:30:55;;;;;;;13.70;2.53;;;;;;;;;;6089824;23;20026;-83
2022/06/12 11:33:40;;;;;;;7.10;1.85;;;;;;;;;;6083406;23;20015;-83
2022/06/12 11:36:21;;;;;;;10.38;2.42;;;;;;;;;;6085628;23;20027;-83
2022/06/12 11:38:59;;;;;;;7.25;2.00;;;;;;;;;;6089368;23;20025;-84
2022/06/12 11:41:40;;;;;;;8.43;2.13;;;;;;;;;;6097331;23;20011;-83
2022/06/12 11:44:24;;;;;;;6.30;1.58;;;;;;;;;;6101997;23;20007;-85
2022/06/12 11:46:58;;;;;;;7.70;2.10;;;;;;;;;;6098879;23;20129;-84
2022/06/12 11:50:06;;;;;;;5.25;1.73;;;;;;;;;;6095954;23;20045;-82
2022/06/12 11:52:55;;;;;;;10.05;1.80;;;;;;;;;;6050723;23;20031;-83
2022/06/12 11:55:28;;;;;;;5.45;1.42;;;;;;;;;;6070334;23;20098;-84
2022/06/12 11:58:21;;;;;;;8.68;1.65;;;;;;;;;;6073393;23;20070;-85
2022/06/12 12:01:23;;;;;;;4.18;1.50;;;;;;;;;;6071069;23;20059;-84
2022/06/12 12:03:53;;;;;;;6.60;1.77;;;;;;;;;;6008038;23;20028;-86
2022/06/12 12:06:56;;;;;;;7.40;1.73;;;;;;;;;;6008892;23;20020;-82
2022/06/12 12:09:51;;;;;;;3.00;1.10;;;;;;;;;;6001385;23;20020;-84
2022/06/12 12:12:29;;;;;;;4.20;1.45;;;;;;;;;;6001614;23;20017;-83
2022/06/12 12:15:01;;;;;;;5.78;1.63;;;;;;;;;;5998060;23;20081;-84
2022/06/12 12:17:45;;;;;;;6.45;1.90;;;;;;;;;;6000014;23;20017;-84
2022/06/12 12:20:19;;;;;;;4.70;1.42;;;;;;;;;;5999642;23;20017;-82
2022/06/12 12:22:48;;;;;;;8.57;1.95;;;;;;;;;;5994348;23;20017;-83
2022/06/12 12:25:39;;;;;;;5.57;1.60;;;;;;;;;;6016982;23;20027;-83
2022/06/12 12:28:19;;;;;;;6.65;1.42;;;;;;;;;;6032616;23;20093;-84
2022/06/12 12:31:01;;;;;;;6.78;1.60;;;;;;;;;;6032029;23;20014;-85
2022/06/12 12:33:57;;;;;;;4.80;1.30;;;;;;;;;;6012491;23;20013;-86
2022/06/12 12:42:39;;;;;;;5.88;1.48;;;;;;;;;;6038122;23;20028;-85
2022/06/12 12:45:13;;;;;;;3.80;1.20;;;;;;;;;;6027424;23;20020;-86
2022/06/12 12:47:43;;;;;;;6.00;1.60;;;;;;;;;;6014893;23;20011;-84
2022/06/12 12:50:18;;;;;;;6.35;1.45;;;;;;;;;;6012730;23;20009;-84
2022/06/12 12:52:56;;;;;;;6.82;1.30;;;;;;;;;;6014544;23;20004;-84
2022/06/12 12:55:29;;;;;;;6.53;1.20;;;;;;;;;;6038697;23;20019;-84
2022/06/12 12:58:18;;;;;;;5.25;1.45;;;;;;;;;;6015204;23;20012;-84
2022/06/12 13:00:47;;;;;;;8.55;1.73;;;;;;;;;;6011318;23;20008;-83
2022/06/12 13:03:38;;;;;;;7.05;1.70;;;;;;;;;;6033664;23;20223;-84
2022/06/12 13:06:37;;;;;;;6.07;1.67;;;;;;;;;;6011954;23;20168;-85
2022/06/12 13:09:13;;;;;;;7.53;1.70;;;;;;;;;;6009308;23;20032;-83
2022/06/12 13:11:55;;;;;;;4.57;1.50;;;;;;;;;;6007256;23;20023;-83
2022/06/12 13:14:25;;;;;;;5.43;1.55;;;;;;;;;;6006816;23;20028;-84
2022/06/12 13:17:07;;;;;;;8.65;1.85;;;;;;;;;;6095915;23;20026;-82
2022/06/12 13:19:54;;;;;;;3.97;1.40;;;;;;;;;;6085806;23;20376;-83
2022/06/12 13:22:54;;;;;;;6.40;1.77;;;;;;;;;;6087272;23;20031;-82
2022/06/12 13:25:27;;;;;;;8.18;1.70;;;;;;;;;;6054876;23;20020;-82
2022/06/12 13:27:58;;;;;;;6.25;1.75;;;;;;;;;;6052681;23;20024;-83
2022/06/12 13:30:41;;;;;;;7.15;1.67;;;;;;;;;;6053413;23;20027;-83
2022/06/12 13:33:16;;;;;;;3.75;1.27;;;;;;;;;;6050113;23;20030;-82
2022/06/12 13:35:46;;;;;;;8.50;1.80;;;;;;;;;;6050697;23;20076;-83
2022/06/12 13:38:31;;;;;;;6.35;1.58;;;;;;;;;;6053037;23;20015;-82
2022/06/12 13:41:03;;;;;;;15.10;2.35;;;;;;;;;;6048959;23;20035;-83
2022/06/12 13:43:35;;;;;;;8.02;1.63;;;;;;;;;;6054228;23;20026;-84
2022/06/12 13:46:05;;;;;;;4.07;1.20;;;;;;;;;;6079271;23;20019;-83
2022/06/12 13:48:36;;;;;;;5.18;1.42;;;;;;;;;;6052979;23;20031;-83
2022/06/12 13:51:30;;;;;;;2.92;1.05;;;;;;;;;;6050128;23;20038;-83
2022/06/12 13:54:05;;;;;;;2.10;1.00;;;;;;;;;;6040726;23;20160;-83
2022/06/12 13:56:35;;;;;;;1.67;1.00;;;;;;;;;;6047810;23;20055;-83
2022/06/12 13:59:04;;;;;;;3.30;1.27;;;;;;;;;;6047680;23;20094;-83
2022/06/12 14:01:35;;;;;;;5.30;1.17;;;;;;;;;;6078970;23;20014;-83
2022/06/12 14:04:04;;;;;;;4.40;1.20;;;;;;;;;;6093484;23;20111;-82
2022/06/12 14:06:37;;;;;;;2.67;1.08;;;;;;;;;;6093857;23;20018;-83
2022/06/12 14:09:23;;;;;;;4.10;1.17;;;;;;;;;;6093561;23;20081;-82
2022/06/12 14:11:52;;;;;;;3.63;1.30;;;;;;;;;;6092338;23;20050;-82
2022/06/12 14:14:40;;;;;;;4.40;1.23;;;;;;;;;;6092133;23;20615;-82
2022/06/12 14:17:28;;;;;;;3.22;1.15;;;;;;;;;;6091334;23;20019;-82
2022/06/12 14:19:58;;;;;;;2.92;1.17;;;;;;;;;;6092729;23;20019;-82
2022/06/12 14:22:26;;;;;;;4.22;1.30;;;;;;;;;;6093442;23;20015;-83
2022/06/12 14:25:02;;;;;;;6.00;1.35;;;;;;;;;;6092394;23;20023;-82
2022/06/12 14:27:37;;;;;;;4.97;1.45;;;;;;;;;;6093651;23;20043;-82
2022/06/12 14:30:06;;;;;;;5.07;1.52;;;;;;;;;;6094984;23;20029;-83
2022/06/12 14:32:44;;;;;;;4.75;1.52;;;;;;;;;;6096277;23;20026;-83
2022/06/12 14:35:13;;;;;;;5.97;1.30;;;;;;;;;;6096611;23;20015;-82
2022/06/12 14:37:43;;;;;;;5.80;1.45;;;;;;;;;;6094006;23;20051;-82
2022/06/12 14:40:24;;;;;;;4.95;1.30;;;;;;;;;;6113248;23;20082;-83
2022/06/12 14:42:57;;;;;;;4.32;1.40;;;;;;;;;;6095549;23;20087;-82
2022/06/12 14:45:44;;;;;;;;;;;;;;;;;;;;;
2022/06/12 14:48:18;;;;;;;3.58;1.25;;;;;;;;;;6108394;23;20019;-82
2022/06/12 14:50:50;;;;;;;4.03;1.40;;;;;;;;;;6127604;23;20027;-85
2022/06/12 14:53:23;;;;;;;3.25;1.17;;;;;;;;;;6102081;23;20015;-84
2022/06/12 14:55:51;;;;;;;4.13;1.60;;;;;;;;;;6126957;23;20015;-83
2022/06/12 14:58:25;;;;;;;6.50;1.95;;;;;;;;;;6101505;23;20021;-85
2022/06/12 15:01:02;;;;;;;11.85;2.72;;;;;;;;;;6101904;23;20007;-83
2022/06/12 15:03:44;;;;;;;6.35;2.10;;;;;;;;;;6100184;23;20051;-84
2022/06/12 15:06:12;;;;;;;7.95;1.90;;;;;;;;;;6101926;23;20066;-84
2022/06/12 15:08:44;;;;;;;10.90;2.35;;;;;;;;;;6101544;23;20487;-82
2022/06/12 15:11:23;;;;;;;9.85;2.20;;;;;;;;;;6089012;23;20037;-82
2022/06/12 15:14:02;;;;;;;11.65;2.30;;;;;;;;;;6082846;23;20066;-82
2022/06/12 15:16:38;;;;;;;10.98;2.60;;;;;;;;;;6082230;23;20026;-82
2022/06/12 15:19:09;;;;;;;8.25;2.28;;;;;;;;;;6090611;23;20043;-83
2022/06/12 15:21:42;;;;;;;11.30;2.60;;;;;;;;;;6101328;23;20011;-84
2022/06/12 15:24:19;;;;;;;9.00;2.63;;;;;;;;;;6121734;23;20751;-82
2022/06/12 15:29:46;;;;;;;8.63;2.22;;;;;;;;;;6120390;23;20070;-82
2022/06/12 15:32:21;;;;;;;14.32;2.83;;;;;;;;;;6097313;23;20074;-82
2022/06/12 15:34:52;;;;;;;9.32;2.72;;;;;;;;;;6087995;23;20065;-82
2022/06/12 15:37:23;;;;;;;10.32;2.72;;;;;;;;;;6081852;23;20014;-83